Time;durP1;ratioP1;P1;durP2;ratioP2;P2;SDS_P1;SDS_P2;PMS_P1;PMS_P2;Temp;Humidity;BMP_temperature;BMP_pressure;BME280_temperature;BME280_humidity;BME280_pressure;Samples;Min_cycle;Max_cycle;Signal;HPM_P1;HPM_P2
2023/11/22 00:01:59;;;;;;;93.57;19.33;;;;;;;6.25;100.00;97636.16;5040684;28;20430;-81
2023/11/22 00:04:26;;;;;;;60.65;14.95;;;;;;;6.26;100.00;97634.34;5040483;28;20445;-81
2023/11/22 00:06:52;;;;;;;53.83;13.27;;;;;;;6.25;100.00;97636.16;5040822;28;20477;-81
2023/11/22 00:09:22;;;;;;;61.45;15.05;;;;;;;6.27;100.00;97647.28;5040901;28;20410;-81
2023/11/22 00:11:49;;;;;;;52.17;13.63;;;;;;;6.26;100.00;97645.66;5041807;28;20402;-82
2023/11/22 00:14:15;;;;;;;54.88;14.05;;;;;;;6.21;100.00;97658.66;5044125;28;20407;-82
2023/11/22 00:16:42;;;;;;;42.13;11.65;;;;;;;6.12;100.00;97657.31;5043098;28;20399;-82
2023/11/22 00:19:09;;;;;;;35.90;10.82;;;;;;;6.03;100.00;97667.28;5042019;28;20411;-82
2023/11/22 00:21:36;;;;;;;35.38;10.60;;;;;;;5.93;100.00;97669.63;5041559;28;20403;-81
2023/11/22 00:24:02;;;;;;;30.83;10.55;;;;;;;5.84;100.00;97674.31;5040140;28;20395;-81
2023/11/22 00:26:29;;;;;;;39.87;12.60;;;;;;;5.76;100.00;97665.88;5040508;28;20425;-82
2023/11/22 00:28:55;;;;;;;37.70;10.70;;;;;;;5.70;100.00;97677.22;5040464;28;20392;-81
2023/11/22 00:31:21;;;;;;;43.30;13.50;;;;;;;5.64;100.00;97672.84;5040043;28;20801;-81
2023/11/22 00:33:47;;;;;;;39.08;11.63;;;;;;;5.57;100.00;97677.31;5039813;28;20461;-82
2023/11/22 00:36:13;;;;;;;43.78;12.50;;;;;;;5.51;100.00;97676.34;5040291;28;20651;-82
2023/11/22 00:38:41;;;;;;;45.00;12.38;;;;;;;5.46;100.00;97689.28;5040541;28;20433;-80
2023/11/22 00:41:07;;;;;;;57.15;14.35;;;;;;;5.40;100.00;97687.53;5039531;28;20403;-80
2023/11/22 00:43:34;;;;;;;58.28;15.00;;;;;;;5.37;100.00;97696.59;5039727;28;20458;-80
2023/11/22 00:46:01;;;;;;;54.30;13.55;;;;;;;5.33;100.00;97694.63;5039969;28;20434;-80
2023/11/22 00:48:27;;;;;;;49.97;13.95;;;;;;;5.30;100.00;97700.28;5039657;28;20533;-80
2023/11/22 00:50:53;;;;;;;46.42;13.13;;;;;;;5.28;100.00;97704.94;5039893;28;20879;-81
2023/11/22 00:53:20;;;;;;;45.97;12.98;;;;;;;5.25;100.00;97700.13;5039020;28;20399;-81
2023/11/22 00:55:47;;;;;;;58.83;14.98;;;;;;;5.25;100.00;97710.63;5039502;28;20414;-80
2023/11/22 00:58:13;;;;;;;48.53;13.73;;;;;;;5.22;100.00;97716.25;5038896;28;20406;-81
2023/11/22 01:00:39;;;;;;;72.22;16.70;;;;;;;5.19;100.00;97721.94;5039896;28;20917;-80
2023/11/22 01:03:05;;;;;;;65.15;16.25;;;;;;;5.14;100.00;97725.19;5044321;28;20403;-79
2023/11/22 01:05:32;;;;;;;77.30;17.98;;;;;;;5.11;100.00;97725.63;5038122;28;20929;-80
2023/11/22 01:07:58;;;;;;;74.93;16.85;;;;;;;5.04;100.00;97725.59;5038312;28;20418;-80
2023/11/22 01:10:24;;;;;;;63.67;15.37;;;;;;;5.00;100.00;97734.91;5037505;28;20395;-80
2023/11/22 01:12:51;;;;;;;77.25;18.45;;;;;;;4.96;100.00;97741.56;5038121;28;20397;-79
2023/11/22 01:15:19;;;;;;;92.68;18.90;;;;;;;4.92;100.00;97742.22;5037657;28;20491;-80
2023/11/22 01:17:45;;;;;;;99.82;21.02;;;;;;;4.90;100.00;97749.47;5038246;28;20399;-79
2023/11/22 01:20:12;;;;;;;100.37;21.20;;;;;;;4.84;100.00;97747.66;5038120;28;20941;-82
2023/11/22 01:22:38;;;;;;;87.20;19.63;;;;;;;4.78;100.00;97740.63;5038325;28;20868;-81
2023/11/22 01:25:05;;;;;;;90.32;18.90;;;;;;;4.73;100.00;97740.44;5038321;28;20419;-80
2023/11/22 01:27:31;;;;;;;71.13;15.98;;;;;;;4.72;100.00;97749.31;5038480;28;20556;-82
2023/11/22 01:29:59;;;;;;;83.40;17.52;;;;;;;4.68;100.00;97752.34;5037971;28;20643;-82
2023/11/22 01:32:25;;;;;;;77.55;17.42;;;;;;;4.66;100.00;97751.72;5040836;28;20418;-82
2023/11/22 01:34:51;;;;;;;84.30;17.50;;;;;;;4.66;100.00;97764.84;5040428;28;20877;-81
2023/11/22 01:37:17;;;;;;;89.82;20.27;;;;;;;4.62;100.00;97760.22;5038267;28;20792;-79
2023/11/22 01:39:43;;;;;;;88.07;18.07;;;;;;;4.60;100.00;97765.66;5037933;28;20410;-81
2023/11/22 01:42:10;;;;;;;69.65;15.85;;;;;;;4.58;100.00;97759.84;5037456;28;20395;-80
2023/11/22 01:44:36;;;;;;;72.38;16.60;;;;;;;4.56;100.00;97774.16;5037793;28;20399;-82
2023/11/22 01:47:05;;;;;;;92.22;19.48;;;;;;;4.53;100.00;97766.69;5037993;28;20425;-84
2023/11/22 01:49:32;;;;;;;100.10;21.88;;;;;;;4.49;100.00;97779.41;5036064;28;20433;-81
2023/11/22 01:51:59;;;;;;;81.97;18.63;;;;;;;4.45;100.00;97788.66;5036261;28;20405;-80
2023/11/22 01:54:25;;;;;;;95.93;20.40;;;;;;;4.41;100.00;97784.84;5036633;28;20387;-82
2023/11/22 01:56:53;;;;;;;90.65;20.23;;;;;;;4.37;100.00;97803.78;5036789;28;20430;-81
2023/11/22 01:59:19;;;;;;;88.88;19.13;;;;;;;4.31;100.00;97794.91;5036030;28;20893;-82
2023/11/22 02:01:45;;;;;;;91.43;20.52;;;;;;;4.28;100.00;97800.56;5036489;28;20399;-82
2023/11/22 02:04:14;;;;;;;86.53;18.08;;;;;;;4.25;100.00;97795.72;5036287;28;20567;-80
2023/11/22 02:06:40;;;;;;;95.18;20.45;;;;;;;4.22;100.00;97807.41;5035966;28;20476;-79
2023/11/22 02:09:10;;;;;;;72.43;17.20;;;;;;;4.19;100.00;97817.50;5035374;28;20389;-81
2023/11/22 02:11:36;;;;;;;57.88;14.75;;;;;;;4.18;100.00;97819.28;5036051;28;20763;-79
2023/11/22 02:14:02;;;;;;;97.00;20.15;;;;;;;4.15;100.00;97814.44;5035743;28;20883;-82
2023/11/22 02:16:28;;;;;;;60.95;16.77;;;;;;;4.10;100.00;97818.69;5036273;28;20415;-80
2023/11/22 02:18:55;;;;;;;62.95;15.27;;;;;;;4.07;100.00;97822.50;5036851;28;20404;-81
2023/11/22 02:21:22;;;;;;;79.78;18.70;;;;;;;4.05;100.00;97829.75;5036170;28;20883;-82
2023/11/22 02:23:50;;;;;;;61.00;16.20;;;;;;;4.00;100.00;97831.34;5035578;28;20403;-82
2023/11/22 02:26:18;;;;;;;55.05;15.30;;;;;;;3.97;100.00;97837.78;5035670;28;20475;-82
2023/11/22 02:28:44;;;;;;;60.10;15.15;;;;;;;3.94;100.00;97848.66;5035759;28;20399;-82
2023/11/22 02:31:10;;;;;;;45.42;12.52;;;;;;;3.93;100.00;97849.66;5035507;28;20483;-82
2023/11/22 02:33:36;;;;;;;39.07;11.37;;;;;;;3.93;100.00;97849.66;5037707;28;20394;-81
2023/11/22 02:36:02;;;;;;;64.50;16.52;;;;;;;3.92;100.00;97850.66;5038030;28;20393;-81
2023/11/22 02:38:29;;;;;;;82.25;17.63;;;;;;;3.85;100.00;97845.41;5034834;28;20403;-82
2023/11/22 02:40:58;;;;;;;84.25;17.40;;;;;;;3.78;100.00;97847.19;5035087;28;20522;-82
2023/11/22 02:43:24;;;;;;;72.03;17.27;;;;;;;3.75;100.00;97842.38;5035545;28;20521;-83
2023/11/22 02:45:50;;;;;;;82.55;18.85;;;;;;;3.72;100.00;97853.22;5034956;28;20423;-82
2023/11/22 02:48:18;;;;;;;85.60;18.23;;;;;;;3.67;100.00;97857.44;5035928;28;20403;-82
2023/11/22 02:50:44;;;;;;;59.42;14.55;;;;;;;3.63;100.00;97864.06;5034909;28;20470;-81
2023/11/22 02:53:11;;;;;;;77.53;17.48;;;;;;;3.59;100.00;97866.25;5035150;28;20395;-82
2023/11/22 02:55:39;;;;;;;56.22;14.55;;;;;;;3.56;100.00;97864.03;5034431;28;21182;-82
2023/11/22 02:58:06;;;;;;;69.25;16.33;;;;;;;3.57;100.00;97862.22;5036671;28;20397;-82
2023/11/22 03:00:34;;;;;;;92.95;19.88;;;;;;;3.53;100.00;97866.25;5036158;28;20490;-82
2023/11/22 03:03:00;;;;;;;78.68;17.67;;;;;;;3.48;100.00;97880.69;5038046;28;20414;-81
2023/11/22 03:05:27;;;;;;;86.05;18.17;;;;;;;3.46;100.00;97874.84;5043807;28;20411;-83
2023/11/22 03:07:53;;;;;;;76.85;17.52;;;;;;;3.44;100.00;97882.09;5036415;28;20425;-81
2023/11/22 03:10:19;;;;;;;71.07;17.63;;;;;;;3.41;100.00;97887.72;5037012;28;20446;-80
2023/11/22 03:12:45;;;;;;;66.63;16.52;;;;;;;3.39;100.00;97892.31;5038419;28;20431;-82
2023/11/22 03:15:13;;;;;;;60.85;15.48;;;;;;;3.35;100.00;97895.53;5037561;28;20427;-82
2023/11/22 03:17:39;;;;;;;72.35;16.58;;;;;;;3.34;100.00;97891.28;5040505;28;20402;-82
2023/11/22 03:20:10;;;;;;;96.63;21.10;;;;;;;3.34;100.00;97904.38;5041179;28;20449;-82
2023/11/22 03:22:37;;;;;;;67.80;17.57;;;;;;;3.28;100.00;97905.16;5040856;28;20879;-83
2023/11/22 03:25:04;;;;;;;68.03;17.63;;;;;;;3.27;100.00;97911.38;5040873;28;20449;-82
2023/11/22 03:27:30;;;;;;;54.88;15.00;;;;;;;3.28;100.00;97907.75;5035362;28;20812;-81
2023/11/22 03:29:57;;;;;;;51.78;13.77;;;;;;;3.29;100.00;97906.75;5035604;28;20402;-81
2023/11/22 03:32:24;;;;;;;59.55;15.15;;;;;;;3.30;100.00;97909.19;5035753;28;20422;-80
2023/11/22 03:34:50;;;;;;;51.40;14.27;;;;;;;3.27;100.00;97914.78;5035991;28;20848;-81
2023/11/22 03:37:17;;;;;;;46.38;13.05;;;;;;;3.29;100.00;97917.22;5034949;28;20406;-81
2023/11/22 03:39:48;;;;;;;43.38;12.43;;;;;;;3.29;100.00;97915.41;5035477;28;20393;-80
2023/11/22 03:42:15;;;;;;;56.08;14.95;;;;;;;3.30;100.00;97921.47;5035471;28;20402;-80
2023/11/22 03:44:41;;;;;;;46.00;13.43;;;;;;;3.29;100.00;97928.50;5035122;28;20426;-80
2023/11/22 03:47:07;;;;;;;55.00;14.63;;;;;;;3.27;100.00;97933.09;5035026;28;20888;-79
2023/11/22 03:49:34;;;;;;;53.95;16.13;;;;;;;3.25;100.00;97934.28;5035340;28;20407;-78
2023/11/22 03:52:00;;;;;;;57.13;16.05;;;;;;;3.25;100.00;97942.94;5034797;28;20399;-79
2023/11/22 03:54:28;;;;;;;61.85;15.65;;;;;;;3.24;100.00;97945.75;5034899;28;20407;-80
2023/11/22 03:56:54;;;;;;;50.05;14.05;;;;;;;3.22;100.00;97951.19;5035016;28;20788;-82
2023/11/22 03:59:20;;;;;;;58.28;15.43;;;;;;;3.24;100.00;97954.41;5034714;28;20425;-80
2023/11/22 04:01:46;;;;;;;58.92;15.48;;;;;;;3.24;100.00;97957.03;5037265;28;20402;-79
2023/11/22 04:04:12;;;;;;;47.33;14.37;;;;;;;3.22;100.00;97959.03;5039224;28;20465;-81
2023/11/22 04:06:40;;;;;;;42.95;13.35;;;;;;;3.23;100.00;97965.09;5034859;28;20521;-79
2023/11/22 04:09:08;;;;;;;41.20;12.20;;;;;;;3.24;100.00;97958.84;5034978;28;20531;-80
2023/11/22 04:11:34;;;;;;;38.30;12.50;;;;;;;3.24;100.00;97951.78;5035456;28;20429;-79
2023/11/22 04:14:00;;;;;;;38.50;11.93;;;;;;;3.24;100.00;97953.59;5035330;28;20407;-82
2023/11/22 04:16:26;;;;;;;49.80;14.15;;;;;;;3.23;100.00;97955.44;5034527;28;20403;-83
2023/11/22 04:18:52;;;;;;;77.72;18.90;;;;;;;3.22;100.00;97966.09;5035207;28;20399;-81
2023/11/22 04:21:19;;;;;;;76.60;17.77;;;;;;;3.19;100.00;97964.66;5034775;28;20477;-82
2023/11/22 04:23:48;;;;;;;65.80;17.13;;;;;;;3.17;100.00;97968.44;5034574;28;20399;-81
2023/11/22 04:26:14;;;;;;;51.58;15.10;;;;;;;3.16;100.00;97967.63;5034724;28;20935;-82
2023/11/22 04:28:40;;;;;;;49.30;14.75;;;;;;;3.17;100.00;97964.00;5035031;28;20393;-82
2023/11/22 04:31:08;;;;;;;48.08;13.45;;;;;;;3.17;100.00;97976.28;5035960;28;20406;-82
2023/11/22 04:33:34;;;;;;;45.03;13.37;;;;;;;3.17;100.00;97982.31;5038369;28;20493;-82
2023/11/22 04:36:00;;;;;;;50.55;15.40;;;;;;;3.16;100.00;97975.47;5039523;28;20403;-82
2023/11/22 04:38:27;;;;;;;50.25;15.88;;;;;;;3.14;100.00;97974.88;5039113;28;20403;-82
2023/11/22 04:40:55;;;;;;;60.33;16.98;;;;;;;3.14;100.00;97992.38;5041147;28;20392;-82
2023/11/22 04:43:21;;;;;;;56.78;16.40;;;;;;;3.12;100.00;97992.56;5043132;28;20408;-81
2023/11/22 04:45:47;;;;;;;57.00;16.50;;;;;;;3.11;100.00;98001.41;5037455;28;20529;-80
2023/11/22 04:48:15;;;;;;;57.72;16.10;;;;;;;3.10;100.00;97999.78;5036571;28;20399;-81
2023/11/22 04:50:41;;;;;;;50.00;15.27;;;;;;;3.09;100.00;98006.00;5037137;28;20500;-81
2023/11/22 04:53:07;;;;;;;55.00;16.38;;;;;;;3.07;100.00;98006.22;5036599;28;20420;-81
2023/11/22 04:55:33;;;;;;;48.78;16.52;;;;;;;3.07;100.00;98008.03;5034886;28;20461;-81
2023/11/22 04:58:01;;;;;;;62.78;19.30;;;;;;;3.08;100.00;98009.63;5038767;28;20490;-82
2023/11/22 05:00:27;;;;;;;55.07;17.00;;;;;;;3.06;100.00;98011.63;5036717;28;20529;-81
2023/11/22 05:02:54;;;;;;;61.67;18.77;;;;;;;3.04;100.00;98005.75;5036989;28;20871;-82
2023/11/22 05:05:20;;;;;;;60.63;18.83;;;;;;;3.00;100.00;98007.97;5036258;28;20545;-82
2023/11/22 05:07:49;;;;;;;58.73;18.43;;;;;;;2.97;100.00;98018.78;5034083;28;20723;-81
2023/11/22 05:10:17;;;;;;;68.82;19.10;;;;;;;2.96;100.00;98024.19;5036608;28;20403;-82
2023/11/22 05:12:44;;;;;;;60.30;17.70;;;;;;;2.94;100.00;98039.25;5038297;28;20408;-83
2023/11/22 05:15:12;;;;;;;50.97;16.27;;;;;;;2.94;100.00;98036.63;5036782;28;20846;-82
2023/11/22 05:17:38;;;;;;;54.33;16.98;;;;;;;2.93;100.00;98040.28;5036779;28;20399;-83
2023/11/22 05:20:08;;;;;;;48.58;15.55;;;;;;;2.91;100.00;98043.06;5036512;28;20406;-82
2023/11/22 05:22:34;;;;;;;42.85;14.57;;;;;;;2.92;100.00;98043.88;5036718;28;20505;-82
2023/11/22 05:25:00;;;;;;;56.40;17.27;;;;;;;2.91;100.00;98047.50;5037412;28;20685;-83
2023/11/22 05:27:28;;;;;;;54.20;16.90;;;;;;;2.87;100.00;98057.50;5040191;28;20467;-81
2023/11/22 05:29:54;;;;;;;53.10;16.52;;;;;;;2.86;100.00;98060.28;5040970;28;20394;-81
2023/11/22 05:32:21;;;;;;;46.33;15.65;;;;;;;2.84;100.00;98057.06;5041076;28;20760;-81
2023/11/22 05:34:47;;;;;;;42.85;13.95;;;;;;;2.85;100.00;98056.06;5041019;28;20403;-82
2023/11/22 05:37:13;;;;;;;36.58;13.32;;;;;;;2.85;100.00;98056.91;5040704;28;20412;-81
2023/11/22 05:39:40;;;;;;;39.55;13.88;;;;;;;2.85;100.00;98058.69;5039332;28;20403;-81
2023/11/22 05:42:06;;;;;;;37.47;13.35;;;;;;;2.84;100.00;98052.66;5039063;28;20395;-81
2023/11/22 05:44:33;;;;;;;44.88;14.60;;;;;;;2.85;100.00;98049.03;5042373;28;20411;-80
2023/11/22 05:46:59;;;;;;;48.00;15.80;;;;;;;2.84;100.00;98046.63;5036765;28;20782;-81
2023/11/22 05:49:26;;;;;;;47.22;16.08;;;;;;;2.82;100.00;98059.06;5039040;28;20403;-81
2023/11/22 05:51:52;;;;;;;49.20;15.93;;;;;;;2.80;100.00;98054.00;5038969;28;20403;-82
2023/11/22 05:54:18;;;;;;;40.55;14.00;;;;;;;2.81;100.00;98060.03;5039148;28;20913;-81
2023/11/22 05:56:44;;;;;;;49.50;16.70;;;;;;;2.82;100.00;98077.34;5039890;28;20403;-81
2023/11/22 05:59:11;;;;;;;50.60;16.73;;;;;;;2.80;100.00;98072.31;5038811;28;20406;-81
2023/11/22 06:01:37;;;;;;;37.80;13.85;;;;;;;2.80;100.00;98074.09;5039091;28;20406;-81
2023/11/22 06:04:03;;;;;;;35.33;12.35;;;;;;;2.80;100.00;98082.75;5037963;28;20410;-81
2023/11/22 06:06:31;;;;;;;34.40;12.90;;;;;;;2.80;100.00;98085.38;5038993;28;20441;-80
2023/11/22 06:08:57;;;;;;;33.08;12.10;;;;;;;2.81;100.00;98091.41;5038239;28;20431;-82
2023/11/22 06:11:25;;;;;;;28.42;11.40;;;;;;;2.82;100.00;98093.03;5037518;28;20395;-81
2023/11/22 06:13:51;;;;;;;31.00;11.57;;;;;;;2.82;100.00;98099.06;5038012;28;20434;-81
2023/11/22 06:16:17;;;;;;;35.10;12.65;;;;;;;2.82;100.00;98106.91;5039854;28;20410;-82
2023/11/22 06:18:44;;;;;;;36.20;12.88;;;;;;;2.78;100.00;98121.38;5041310;28;20395;-81
2023/11/22 06:21:10;;;;;;;35.30;12.50;;;;;;;2.77;100.00;98119.75;5040811;28;20395;-81
2023/11/22 06:23:38;;;;;;;40.50;14.35;;;;;;;2.77;100.00;98121.53;5051720;28;20386;-79
2023/11/22 06:26:04;;;;;;;34.27;13.17;;;;;;;2.76;100.00;98122.53;5051798;28;20446;-79
2023/11/22 06:28:30;;;;;;;29.10;11.68;;;;;;;2.76;100.00;98130.38;5035958;28;20462;-81
2023/11/22 06:30:57;;;;;;;40.97;13.90;;;;;;;2.76;100.00;98140.84;5038490;28;20423;-82
2023/11/22 06:33:23;;;;;;;53.58;16.85;;;;;;;2.72;100.00;98135.16;5040527;28;20470;-81
2023/11/22 06:35:49;;;;;;;51.17;17.80;;;;;;;2.69;100.00;98138.16;5036759;28;20898;-82
2023/11/22 06:38:16;;;;;;;45.35;15.75;;;;;;;2.67;100.00;98138.31;5035290;28;20907;-82
2023/11/22 06:40:44;;;;;;;46.85;16.33;;;;;;;2.67;100.00;98145.34;5034554;28;20429;-82
2023/11/22 06:43:10;;;;;;;46.88;15.50;;;;;;;2.64;100.00;98132.63;5035578;28;20403;-81
2023/11/22 06:45:36;;;;;;;56.97;17.70;;;;;;;2.61;100.00;98127.78;5034667;28;20471;-82
2023/11/22 06:48:02;;;;;;;50.95;16.40;;;;;;;2.57;100.00;98140.38;5034326;28;20421;-81
2023/11/22 06:50:28;;;;;;;57.28;16.92;;;;;;;2.56;100.00;98138.75;5035609;28;20402;-81
2023/11/22 06:52:54;;;;;;;48.83;16.70;;;;;;;2.54;100.00;98142.56;5038135;28;20407;-82
2023/11/22 06:55:21;;;;;;;45.17;15.73;;;;;;;2.53;100.00;98149.59;5036214;28;20927;-82
2023/11/22 06:57:48;;;;;;;49.20;17.08;;;;;;;2.54;100.00;98153.84;5036509;28;20402;-82
2023/11/22 07:00:16;;;;;;;59.88;17.70;;;;;;;2.51;100.00;98153.38;5036828;28;20422;-82
2023/11/22 07:02:42;;;;;;;69.70;20.20;;;;;;;2.51;100.00;98163.81;5036626;28;20398;-81
2023/11/22 07:05:09;;;;;;;70.00;20.35;;;;;;;2.46;100.00;98161.78;5036038;28;20474;-80
2023/11/22 07:07:35;;;;;;;61.75;19.05;;;;;;;2.41;100.00;98158.88;5036115;28;20419;-81
2023/11/22 07:10:02;;;;;;;51.17;16.50;;;;;;;2.36;100.00;98166.44;5036505;28;20399;-80
2023/11/22 07:12:28;;;;;;;50.28;16.20;;;;;;;2.34;100.00;98168.41;5037879;28;20396;-79
2023/11/22 07:14:56;;;;;;;55.95;15.38;;;;;;;2.29;100.00;98166.34;5040400;28;20891;-80
2023/11/22 07:17:22;;;;;;;57.33;15.77;;;;;;;2.28;100.00;98167.34;5035074;28;20490;-80
2023/11/22 07:19:49;;;;;;;48.78;15.48;;;;;;;2.26;100.00;98165.88;5037849;28;20460;-80
2023/11/22 07:22:19;;;;;;;47.80;15.05;;;;;;;2.24;100.00;98179.16;5036210;28;20392;-82
2023/11/22 07:24:47;;;;;;;50.30;15.50;;;;;;;2.21;100.00;98179.50;5031835;28;20403;-81
2023/11/22 07:27:14;;;;;;;50.43;15.33;;;;;;;2.20;100.00;98190.09;5035136;28;20953;-81
2023/11/22 07:29:41;;;;;;;50.20;14.43;;;;;;;2.19;100.00;98191.09;5036719;28;20475;-80
2023/11/22 07:32:09;;;;;;;47.85;14.95;;;;;;;2.16;100.00;98204.53;5034449;28;20415;-80
2023/11/22 07:34:36;;;;;;;44.92;14.75;;;;;;;2.14;100.00;98212.53;5034749;28;20958;-80
2023/11/22 07:37:02;;;;;;;47.50;15.15;;;;;;;2.13;100.00;98216.13;5035831;28;20760;-79
2023/11/22 07:39:28;;;;;;;45.40;15.45;;;;;;;2.12;100.00;98217.13;5036070;28;20449;-80
2023/11/22 07:41:55;;;;;;;43.50;13.02;;;;;;;2.12;100.00;98227.56;5034124;28;20764;-80
2023/11/22 07:44:21;;;;;;;53.67;14.43;;;;;;;2.11;100.00;98230.34;5037117;28;20501;-78
2023/11/22 07:46:47;;;;;;;42.70;13.67;;;;;;;2.09;100.00;98234.94;5036803;28;20473;-80
2023/11/22 07:49:15;;;;;;;40.58;12.50;;;;;;;2.10;100.00;98232.16;5036504;28;20402;-79
2023/11/22 07:51:41;;;;;;;43.78;14.00;;;;;;;2.13;100.00;98238.81;5037983;28;20399;-81
2023/11/22 07:54:08;;;;;;;48.83;13.10;;;;;;;2.12;100.00;98240.63;5037803;28;20453;-80
2023/11/22 07:56:34;;;;;;;32.47;12.07;;;;;;;2.14;100.00;98243.06;5037332;28;20403;-80
2023/11/22 07:59:01;;;;;;;40.37;12.43;;;;;;;2.15;100.00;98239.47;5038941;28;20407;-80
2023/11/22 08:01:29;;;;;;;53.65;14.90;;;;;;;2.14;100.00;98238.66;5037748;28;20383;-80
2023/11/22 08:03:55;;;;;;;53.17;14.02;;;;;;;2.11;100.00;98236.38;5042458;28;20749;-80
2023/11/22 08:06:23;;;;;;;44.90;12.93;;;;;;;2.10;100.00;98228.75;5038871;28;20493;-80
2023/11/22 08:08:51;;;;;;;35.80;11.40;;;;;;;2.12;100.00;98235.41;5038451;28;20412;-81
2023/11/22 08:11:20;;;;;;;29.58;10.55;;;;;;;2.16;100.00;98238.47;5039598;28;20767;-79
2023/11/22 08:13:47;;;;;;;36.28;12.30;;;;;;;2.18;100.00;98236.50;5042202;28;20403;-80
2023/11/22 08:16:13;;;;;;;47.33;12.90;;;;;;;2.18;100.00;98242.50;5040681;28;20399;-81
2023/11/22 08:18:42;;;;;;;34.25;11.98;;;;;;;2.18;100.00;98244.34;5039512;28;20425;-82
2023/11/22 08:21:08;;;;;;;35.33;11.80;;;;;;;2.19;100.00;98240.72;5040908;28;20492;-81
2023/11/22 08:23:36;;;;;;;44.95;13.07;;;;;;;2.19;100.00;98240.72;5039947;28;20448;-81
2023/11/22 08:26:04;;;;;;;40.38;13.50;;;;;;;2.17;100.00;98233.09;5039560;28;20465;-81
2023/11/22 08:28:30;;;;;;;36.40;12.35;;;;;;;2.18;100.00;98237.28;5040676;28;20453;-82
2023/11/22 08:30:56;;;;;;;35.67;11.75;;;;;;;2.20;100.00;98239.72;5043031;28;20758;-82
2023/11/22 08:33:23;;;;;;;30.30;11.05;;;;;;;2.21;100.00;98244.78;5043132;28;20401;-82
2023/11/22 08:35:52;;;;;;;37.30;12.70;;;;;;;2.19;100.00;98241.53;5043279;28;20399;-82
2023/11/22 08:38:19;;;;;;;40.90;12.30;;;;;;;2.16;100.00;98236.69;5043175;28;20403;-82
2023/11/22 08:40:46;;;;;;;36.28;11.48;;;;;;;2.14;100.00;98233.44;5049531;28;20485;-80
2023/11/22 08:43:12;;;;;;;37.83;11.90;;;;;;;2.15;100.00;98242.88;5042244;28;20422;-77
2023/11/22 08:45:39;;;;;;;31.73;10.55;;;;;;;2.19;100.00;98243.34;5041024;28;20422;-82
2023/11/22 08:48:05;;;;;;;26.50;10.07;;;;;;;2.24;100.00;98249.66;5040478;28;20879;-82
2023/11/22 08:50:31;;;;;;;27.33;9.50;;;;;;;2.27;100.00;98241.47;5040902;28;20433;-81
2023/11/22 08:52:57;;;;;;;24.77;10.32;;;;;;;2.28;100.00;98245.69;5044229;28;20723;-81
2023/11/22 08:55:24;;;;;;;26.55;9.65;;;;;;;2.29;100.00;98249.94;5043873;28;20395;-82
2023/11/22 08:57:52;;;;;;;21.42;9.45;;;;;;;2.33;100.00;98258.25;5042839;28;20406;-82
2023/11/22 09:00:27;;;;;;;25.20;9.00;;;;;;;2.36;100.00;98252.66;5045105;28;20407;-81
2023/11/22 09:02:57;;;;;;;21.92;8.85;;;;;;;2.42;100.00;98258.97;5045862;28;20398;-80
2023/11/22 09:05:23;;;;;;;23.52;8.38;;;;;;;2.46;100.00;98249.78;5041610;28;20487;-81
2023/11/22 09:07:50;;;;;;;28.38;10.55;;;;;;;2.45;100.00;98245.56;5040782;28;20402;-80
2023/11/22 09:10:18;;;;;;;32.25;10.63;;;;;;;2.44;100.00;98246.53;5040818;28;20391;-81
2023/11/22 09:12:47;;;;;;;31.67;10.80;;;;;;;2.41;100.00;98242.47;5038982;28;20410;-80
2023/11/22 09:15:17;;;;;;;29.52;10.88;;;;;;;2.41;100.00;98237.25;5039518;28;20395;-81
2023/11/22 09:17:45;;;;;;;26.75;10.20;;;;;;;2.43;100.00;98239.69;5041549;28;20883;-80
2023/11/22 09:20:12;;;;;;;29.60;10.65;;;;;;;2.44;100.00;98241.31;5040731;28;20403;-82
2023/11/22 09:22:45;;;;;;;25.10;10.15;;;;;;;2.46;100.00;98242.78;5043483;28;20482;-81
2023/11/22 09:25:12;;;;;;;25.17;9.98;;;;;;;2.49;100.00;98250.22;5050990;28;20395;-81
2023/11/22 09:27:40;;;;;;;24.35;9.65;;;;;;;2.53;100.00;98248.91;5051796;28;20415;-83
2023/11/22 09:30:11;;;;;;;23.80;9.95;;;;;;;2.56;100.00;98253.75;5041296;28;20447;-83
2023/11/22 09:32:38;;;;;;;26.38;9.95;;;;;;;2.58;100.00;98246.56;5043185;28;20392;-81
2023/11/22 09:35:05;;;;;;;26.92;10.00;;;;;;;2.58;100.00;98249.16;5040034;28;20438;-82
2023/11/22 09:37:32;;;;;;;22.63;9.60;;;;;;;2.57;100.00;98246.72;5037453;28;20411;-80
2023/11/22 09:39:58;;;;;;;25.87;10.33;;;;;;;2.56;100.00;98253.75;5041077;28;20751;-81
2023/11/22 09:42:26;;;;;;;29.42;11.18;;;;;;;2.57;100.00;98257.19;5040239;28;20426;-81
2023/11/22 09:44:52;;;;;;;35.05;12.30;;;;;;;2.55;100.00;98251.34;5039242;28;20395;-82
2023/11/22 09:47:19;;;;;;;31.05;11.18;;;;;;;2.54;100.00;98255.75;5041031;28;20419;-82
2023/11/22 09:49:48;;;;;;;32.13;11.80;;;;;;;2.53;100.00;98267.19;5041381;28;20410;-81
2023/11/22 09:52:21;;;;;;;33.05;11.45;;;;;;;2.52;100.00;98265.56;5034029;28;20465;-82
2023/11/22 09:54:49;;;;;;;35.17;12.73;;;;;;;2.51;100.00;98273.56;5041386;28;20395;-81
2023/11/22 09:57:17;;;;;;;32.70;12.30;;;;;;;2.49;100.00;98278.97;5042667;28;20466;-81
2023/11/22 09:59:43;;;;;;;46.70;14.07;;;;;;;2.50;100.00;98287.63;5041913;28;20438;-82
2023/11/22 10:02:10;;;;;;;41.92;14.95;;;;;;;2.47;100.00;98290.63;5041448;28;20395;-82
2023/11/22 10:04:36;;;;;;;40.47;13.45;;;;;;;2.47;100.00;98304.50;5041044;28;20408;-82
2023/11/22 10:07:04;;;;;;;39.00;13.25;;;;;;;2.49;100.00;98312.13;5041276;28;20410;-82
2023/11/22 10:09:30;;;;;;;34.47;12.85;;;;;;;2.51;100.00;98310.97;5041451;28;20961;-80
2023/11/22 10:12:02;;;;;;;36.47;13.63;;;;;;;2.52;100.00;98317.03;5041733;28;20407;-80
2023/11/22 10:14:28;;;;;;;33.13;13.35;;;;;;;2.51;100.00;98313.59;5040722;28;20411;-81
2023/11/22 10:16:59;;;;;;;36.55;13.23;;;;;;;2.52;100.00;98312.59;5041647;28;20741;-79
2023/11/22 10:19:25;;;;;;;43.60;14.98;;;;;;;2.50;100.00;98313.75;5041736;28;20394;-81
2023/11/22 10:22:04;;;;;;;48.13;15.50;;;;;;;2.46;100.00;98317.72;5039367;28;20403;-81
2023/11/22 10:24:34;;;;;;;53.63;16.67;;;;;;;2.42;100.00;98313.84;5047504;28;20401;-82
2023/11/22 10:27:00;;;;;;;44.88;15.75;;;;;;;2.40;100.00;98308.81;5042606;28;20911;-81
2023/11/22 10:29:27;;;;;;;39.40;15.35;;;;;;;2.39;100.00;98304.56;5041981;28;20403;-82
2023/11/22 10:31:53;;;;;;;40.65;15.40;;;;;;;2.42;100.00;98309.41;5043322;28;20400;-81
2023/11/22 10:34:20;;;;;;;39.65;13.70;;;;;;;2.47;100.00;98306.28;5042757;28;20399;-82
2023/11/22 10:36:47;;;;;;;36.78;14.73;;;;;;;2.52;100.00;98303.94;5042592;28;20397;-82
2023/11/22 10:39:18;;;;;;;35.30;13.88;;;;;;;2.57;100.00;98304.22;5036068;28;20450;-81
2023/11/22 10:41:46;;;;;;;35.95;13.80;;;;;;;2.63;100.00;98298.31;5043233;28;20422;-81
2023/11/22 10:44:12;;;;;;;33.40;13.05;;;;;;;2.65;100.00;98296.31;5039435;28;20767;-82
2023/11/22 10:46:40;;;;;;;34.53;13.57;;;;;;;2.68;100.00;98290.75;5043071;28;20426;-82
2023/11/22 10:49:06;;;;;;;39.55;15.32;;;;;;;2.71;100.00;98303.44;5043108;28;20469;-81
2023/11/22 10:51:33;;;;;;;38.17;14.63;;;;;;;2.72;100.00;98302.44;5040173;28;20462;-81
2023/11/22 10:54:03;;;;;;;39.72;14.23;;;;;;;2.77;100.00;98304.53;5042767;28;20436;-82
2023/11/22 10:56:37;;;;;;;33.63;14.30;;;;;;;2.81;100.00;98311.03;5043384;28;20431;-82
2023/11/22 10:59:09;;;;;;;33.33;13.40;;;;;;;2.88;100.00;98309.31;5042401;28;20468;-84
2023/11/22 11:01:37;;;;;;;31.17;12.65;;;;;;;2.96;100.00;98307.44;5029632;28;20453;-80
2023/11/22 11:04:10;;;;;;;29.98;12.70;;;;;;;3.03;100.00;98310.13;5042936;28;20432;-81
2023/11/22 11:06:37;;;;;;;28.17;11.95;;;;;;;3.11;100.00;98323.13;5040930;28;20455;-81
2023/11/22 11:09:10;;;;;;;29.15;12.40;;;;;;;3.17;100.00;98327.63;5041616;28;20398;-82
2023/11/22 11:11:38;;;;;;;38.92;15.07;;;;;;;3.14;100.00;98333.25;5039884;28;21009;-81
2023/11/22 11:14:09;;;;;;;32.63;13.80;;;;;;;3.13;100.00;98330.78;5042859;28;20396;-81
2023/11/22 11:16:38;;;;;;;40.53;16.00;;;;;;;3.09;100.00;98330.34;5036522;28;20399;-82